sensor_id;sensor_type;location;lat;lon;timestamp;P1;durP1;ratioP1;P2;durP2;ratioP2
50789;SDS011;37287;47.554;7.844;2024-02-15T00:02:23;2.50;;;2.17;;
50789;SDS011;37287;47.554;7.844;2024-02-15T00:04:49;2.00;;;1.80;;
50789;SDS011;37287;47.554;7.844;2024-02-15T00:07:16;6.22;;;1.77;;
50789;SDS011;37287;47.554;7.844;2024-02-15T00:09:44;3.05;;;1.83;;
50789;SDS011;37287;47.554;7.844;2024-02-15T00:12:10;1.60;;;1.50;;
50789;SDS011;37287;47.554;7.844;2024-02-15T00:14:37;2.15;;;1.80;;
50789;SDS011;37287;47.554;7.844;2024-02-15T00:17:04;2.03;;;1.83;;
50789;SDS011;37287;47.554;7.844;2024-02-15T00:19:31;1.92;;;1.70;;
50789;SDS011;37287;47.554;7.844;2024-02-15T00:21:58;2.88;;;1.80;;
50789;SDS011;37287;47.554;7.844;2024-02-15T00:24:25;1.60;;;1.50;;
50789;SDS011;37287;47.554;7.844;2024-02-15T00:26:52;2.08;;;1.85;;
50789;SDS011;37287;47.554;7.844;2024-02-15T00:29:20;2.15;;;1.95;;
50789;SDS011;37287;47.554;7.844;2024-02-15T00:31:47;1.67;;;1.58;;
50789;SDS011;37287;47.554;7.844;2024-02-15T00:34:14;2.55;;;1.73;;
50789;SDS011;37287;47.554;7.844;2024-02-15T00:36:44;1.70;;;1.60;;
50789;SDS011;37287;47.554;7.844;2024-02-15T00:39:11;2.72;;;1.80;;
50789;SDS011;37287;47.554;7.844;2024-02-15T00:41:40;2.65;;;2.08;;
50789;SDS011;37287;47.554;7.844;2024-02-15T00:44:09;2.40;;;1.60;;
50789;SDS011;37287;47.554;7.844;2024-02-15T00:46:37;2.45;;;1.70;;
50789;SDS011;37287;47.554;7.844;2024-02-15T00:49:04;2.13;;;1.92;;
50789;SDS011;37287;47.554;7.844;2024-02-15T00:51:35;2.28;;;2.08;;
50789;SDS011;37287;47.554;7.844;2024-02-15T00:54:02;2.67;;;1.70;;
50789;SDS011;37287;47.554;7.844;2024-02-15T00:56:29;1.70;;;1.60;;
50789;SDS011;37287;47.554;7.844;2024-02-15T00:59:01;1.98;;;1.70;;
50789;SDS011;37287;47.554;7.844;2024-02-15T01:01:28;3.10;;;1.92;;
50789;SDS011;37287;47.554;7.844;2024-02-15T01:03:54;3.38;;;1.75;;
50789;SDS011;37287;47.554;7.844;2024-02-15T01:06:21;3.13;;;1.80;;
50789;SDS011;37287;47.554;7.844;2024-02-15T01:08:49;2.05;;;1.75;;
50789;SDS011;37287;47.554;7.844;2024-02-15T01:11:16;2.35;;;1.90;;
50789;SDS011;37287;47.554;7.844;2024-02-15T01:13:43;1.92;;;1.60;;
50789;SDS011;37287;47.554;7.844;2024-02-15T01:16:11;2.80;;;1.90;;
50789;SDS011;37287;47.554;7.844;2024-02-15T01:18:37;2.10;;;1.90;;
50789;SDS011;37287;47.554;7.844;2024-02-15T01:21:04;2.10;;;1.90;;
50789;SDS011;37287;47.554;7.844;2024-02-15T01:23:32;2.15;;;1.95;;
50789;SDS011;37287;47.554;7.844;2024-02-15T01:26:01;2.95;;;2.00;;
50789;SDS011;37287;47.554;7.844;2024-02-15T01:28:28;2.35;;;2.00;;
50789;SDS011;37287;47.554;7.844;2024-02-15T01:30:55;2.33;;;1.75;;
50789;SDS011;37287;47.554;7.844;2024-02-15T01:33:22;2.45;;;2.10;;
50789;SDS011;37287;47.554;7.844;2024-02-15T01:35:48;2.42;;;1.90;;
50789;SDS011;37287;47.554;7.844;2024-02-15T01:38:16;2.75;;;2.00;;
50789;SDS011;37287;47.554;7.844;2024-02-15T01:40:43;2.35;;;2.10;;
50789;SDS011;37287;47.554;7.844;2024-02-15T01:43:09;2.30;;;2.10;;
50789;SDS011;37287;47.554;7.844;2024-02-15T01:45:36;2.50;;;1.77;;
50789;SDS011;37287;47.554;7.844;2024-02-15T01:48:02;2.08;;;1.77;;
50789;SDS011;37287;47.554;7.844;2024-02-15T01:50:30;2.10;;;1.90;;
50789;SDS011;37287;47.554;7.844;2024-02-15T01:53:01;1.95;;;1.80;;
50789;SDS011;37287;47.554;7.844;2024-02-15T01:55:31;2.63;;;1.60;;
50789;SDS011;37287;47.554;7.844;2024-02-15T01:58:00;2.40;;;2.20;;
50789;SDS011;37287;47.554;7.844;2024-02-15T02:00:27;2.17;;;1.90;;
50789;SDS011;37287;47.554;7.844;2024-02-15T02:02:54;4.35;;;2.25;;
50789;SDS011;37287;47.554;7.844;2024-02-15T02:05:29;2.25;;;1.80;;
50789;SDS011;37287;47.554;7.844;2024-02-15T02:07:58;2.08;;;1.88;;
50789;SDS011;37287;47.554;7.844;2024-02-15T02:10:28;2.33;;;1.95;;
50789;SDS011;37287;47.554;7.844;2024-02-15T02:13:00;1.92;;;1.83;;
50789;SDS011;37287;47.554;7.844;2024-02-15T02:15:33;2.38;;;2.03;;
50789;SDS011;37287;47.554;7.844;2024-02-15T02:18:00;2.17;;;1.80;;
50789;SDS011;37287;47.554;7.844;2024-02-15T02:20:27;3.20;;;2.00;;
50789;SDS011;37287;47.554;7.844;2024-02-15T02:22:55;3.05;;;1.75;;
50789;SDS011;37287;47.554;7.844;2024-02-15T02:25:34;2.72;;;1.70;;
50789;SDS011;37287;47.554;7.844;2024-02-15T02:28:01;4.30;;;1.80;;
50789;SDS011;37287;47.554;7.844;2024-02-15T02:30:28;1.95;;;1.75;;
50789;SDS011;37287;47.554;7.844;2024-02-15T02:32:59;2.58;;;1.80;;
50789;SDS011;37287;47.554;7.844;2024-02-15T02:35:26;2.03;;;1.83;;
50789;SDS011;37287;47.554;7.844;2024-02-15T02:37:54;2.05;;;1.63;;
50789;SDS011;37287;47.554;7.844;2024-02-15T02:40:21;1.80;;;1.70;;
50789;SDS011;37287;47.554;7.844;2024-02-15T02:42:51;1.60;;;1.50;;
50789;SDS011;37287;47.554;7.844;2024-02-15T02:45:19;1.70;;;1.60;;
50789;SDS011;37287;47.554;7.844;2024-02-15T02:47:49;3.13;;;1.77;;
50789;SDS011;37287;47.554;7.844;2024-02-15T02:50:22;1.85;;;1.55;;
50789;SDS011;37287;47.554;7.844;2024-02-15T02:52:50;2.47;;;1.80;;
50789;SDS011;37287;47.554;7.844;2024-02-15T02:55:17;1.67;;;1.58;;
50789;SDS011;37287;47.554;7.844;2024-02-15T02:57:44;2.08;;;1.80;;
50789;SDS011;37287;47.554;7.844;2024-02-15T03:00:16;4.00;;;1.85;;
50789;SDS011;37287;47.554;7.844;2024-02-15T03:02:43;4.72;;;1.75;;
50789;SDS011;37287;47.554;7.844;2024-02-15T03:05:12;1.80;;;1.65;;
50789;SDS011;37287;47.554;7.844;2024-02-15T03:07:42;2.33;;;1.80;;
50789;SDS011;37287;47.554;7.844;2024-02-15T03:10:09;1.73;;;1.58;;
50789;SDS011;37287;47.554;7.844;2024-02-15T03:12:39;1.55;;;1.45;;
50789;SDS011;37287;47.554;7.844;2024-02-15T03:15:06;2.25;;;1.77;;
50789;SDS011;37287;47.554;7.844;2024-02-15T03:17:39;2.58;;;1.90;;
50789;SDS011;37287;47.554;7.844;2024-02-15T03:20:09;1.70;;;1.60;;
50789;SDS011;37287;47.554;7.844;2024-02-15T03:22:54;1.70;;;1.60;;
50789;SDS011;37287;47.554;7.844;2024-02-15T03:25:22;1.70;;;1.60;;
50789;SDS011;37287;47.554;7.844;2024-02-15T03:27:53;1.50;;;1.40;;
50789;SDS011;37287;47.554;7.844;2024-02-15T03:30:20;2.53;;;1.67;;
50789;SDS011;37287;47.554;7.844;2024-02-15T03:32:48;1.83;;;1.70;;
50789;SDS011;37287;47.554;7.844;2024-02-15T03:35:18;2.30;;;1.90;;
50789;SDS011;37287;47.554;7.844;2024-02-15T03:37:49;1.85;;;1.70;;
50789;SDS011;37287;47.554;7.844;2024-02-15T03:40:20;2.42;;;1.67;;
50789;SDS011;37287;47.554;7.844;2024-02-15T03:42:47;1.77;;;1.67;;
50789;SDS011;37287;47.554;7.844;2024-02-15T03:45:14;1.85;;;1.75;;
50789;SDS011;37287;47.554;7.844;2024-02-15T03:47:42;1.92;;;1.80;;
50789;SDS011;37287;47.554;7.844;2024-02-15T03:50:09;3.80;;;1.88;;
50789;SDS011;37287;47.554;7.844;2024-02-15T03:52:36;1.88;;;1.70;;
50789;SDS011;37287;47.554;7.844;2024-02-15T03:55:04;3.28;;;1.75;;
50789;SDS011;37287;47.554;7.844;2024-02-15T03:57:31;1.58;;;1.48;;
50789;SDS011;37287;47.554;7.844;2024-02-15T03:59:59;1.60;;;1.50;;
50789;SDS011;37287;47.554;7.844;2024-02-15T04:02:27;2.03;;;1.50;;
50789;SDS011;37287;47.554;7.844;2024-02-15T04:04:54;2.28;;;1.50;;
50789;SDS011;37287;47.554;7.844;2024-02-15T04:07:22;1.60;;;1.50;;
50789;SDS011;37287;47.554;7.844;2024-02-15T04:09:51;1.63;;;1.48;;
50789;SDS011;37287;47.554;7.844;2024-02-15T04:12:19;1.50;;;1.40;;
50789;SDS011;37287;47.554;7.844;2024-02-15T04:14:46;1.27;;;1.20;;
50789;SDS011;37287;47.554;7.844;2024-02-15T04:17:13;1.40;;;1.30;;
50789;SDS011;37287;47.554;7.844;2024-02-15T04:19:46;1.42;;;1.33;;
50789;SDS011;37287;47.554;7.844;2024-02-15T04:22:13;1.58;;;1.48;;
50789;SDS011;37287;47.554;7.844;2024-02-15T04:24:43;1.75;;;1.65;;
50789;SDS011;37287;47.554;7.844;2024-02-15T04:27:12;1.80;;;1.70;;
50789;SDS011;37287;47.554;7.844;2024-02-15T04:29:40;1.90;;;1.80;;
50789;SDS011;37287;47.554;7.844;2024-02-15T04:32:12;1.83;;;1.67;;
50789;SDS011;37287;47.554;7.844;2024-02-15T04:34:39;2.22;;;2.03;;
50789;SDS011;37287;47.554;7.844;2024-02-15T04:37:06;4.03;;;2.42;;
50789;SDS011;37287;47.554;7.844;2024-02-15T04:39:33;3.38;;;2.50;;
50789;SDS011;37287;47.554;7.844;2024-02-15T04:42:02;3.08;;;2.67;;
50789;SDS011;37287;47.554;7.844;2024-02-15T04:44:31;4.47;;;3.22;;
50789;SDS011;37287;47.554;7.844;2024-02-15T04:47:02;4.78;;;3.55;;
50789;SDS011;37287;47.554;7.844;2024-02-15T04:49:32;4.63;;;3.00;;
50789;SDS011;37287;47.554;7.844;2024-02-15T04:51:59;4.00;;;2.95;;
50789;SDS011;37287;47.554;7.844;2024-02-15T04:54:29;3.90;;;3.50;;
50789;SDS011;37287;47.554;7.844;2024-02-15T04:56:55;3.63;;;3.10;;
50789;SDS011;37287;47.554;7.844;2024-02-15T04:59:23;4.28;;;3.72;;
50789;SDS011;37287;47.554;7.844;2024-02-15T05:01:52;4.72;;;3.55;;
50789;SDS011;37287;47.554;7.844;2024-02-15T05:04:20;5.40;;;4.43;;
50789;SDS011;37287;47.554;7.844;2024-02-15T05:06:46;6.60;;;3.60;;
50789;SDS011;37287;47.554;7.844;2024-02-15T05:09:13;6.25;;;3.50;;
50789;SDS011;37287;47.554;7.844;2024-02-15T05:11:40;4.70;;;3.33;;
50789;SDS011;37287;47.554;7.844;2024-02-15T05:14:15;4.47;;;3.13;;
50789;SDS011;37287;47.554;7.844;2024-02-15T05:16:49;4.30;;;3.75;;
50789;SDS011;37287;47.554;7.844;2024-02-15T05:19:16;12.60;;;4.10;;
50789;SDS011;37287;47.554;7.844;2024-02-15T05:21:43;4.63;;;4.07;;
50789;SDS011;37287;47.554;7.844;2024-02-15T05:24:14;5.40;;;4.40;;
50789;SDS011;37287;47.554;7.844;2024-02-15T05:26:43;4.90;;;4.22;;
50789;SDS011;37287;47.554;7.844;2024-02-15T05:29:13;5.32;;;3.75;;
50789;SDS011;37287;47.554;7.844;2024-02-15T05:31:40;6.95;;;3.80;;
50789;SDS011;37287;47.554;7.844;2024-02-15T05:34:12;5.03;;;4.20;;
50789;SDS011;37287;47.554;7.844;2024-02-15T05:36:39;5.70;;;3.90;;
50789;SDS011;37287;47.554;7.844;2024-02-15T05:39:06;5.07;;;4.57;;
50789;SDS011;37287;47.554;7.844;2024-02-15T05:41:34;5.00;;;3.85;;
50789;SDS011;37287;47.554;7.844;2024-02-15T05:44:01;4.63;;;3.42;;
50789;SDS011;37287;47.554;7.844;2024-02-15T05:46:31;4.25;;;3.67;;
50789;SDS011;37287;47.554;7.844;2024-02-15T05:48:57;4.38;;;3.65;;
50789;SDS011;37287;47.554;7.844;2024-02-15T05:51:26;5.43;;;3.60;;
50789;SDS011;37287;47.554;7.844;2024-02-15T05:53:53;4.10;;;3.55;;
50789;SDS011;37287;47.554;7.844;2024-02-15T05:56:25;4.38;;;3.25;;
50789;SDS011;37287;47.554;7.844;2024-02-15T05:58:55;4.63;;;4.10;;
50789;SDS011;37287;47.554;7.844;2024-02-15T06:01:23;4.47;;;3.60;;
50789;SDS011;37287;47.554;7.844;2024-02-15T06:03:50;5.72;;;4.30;;
50789;SDS011;37287;47.554;7.844;2024-02-15T06:06:21;5.35;;;3.67;;
50789;SDS011;37287;47.554;7.844;2024-02-15T06:08:49;5.25;;;4.28;;
50789;SDS011;37287;47.554;7.844;2024-02-15T06:11:18;6.32;;;4.60;;
50789;SDS011;37287;47.554;7.844;2024-02-15T06:13:47;7.63;;;4.03;;
50789;SDS011;37287;47.554;7.844;2024-02-15T06:16:14;5.60;;;4.78;;
50789;SDS011;37287;47.554;7.844;2024-02-15T06:18:40;6.90;;;4.90;;
50789;SDS011;37287;47.554;7.844;2024-02-15T06:21:07;7.93;;;5.85;;
50789;SDS011;37287;47.554;7.844;2024-02-15T06:23:35;6.60;;;4.60;;
50789;SDS011;37287;47.554;7.844;2024-02-15T06:26:02;6.57;;;5.20;;
50789;SDS011;37287;47.554;7.844;2024-02-15T06:28:29;9.43;;;4.90;;
50789;SDS011;37287;47.554;7.844;2024-02-15T06:31:14;5.10;;;4.60;;
50789;SDS011;37287;47.554;7.844;2024-02-15T06:34:00;5.93;;;4.63;;
50789;SDS011;37287;47.554;7.844;2024-02-15T06:36:46;9.65;;;5.30;;
50789;SDS011;37287;47.554;7.844;2024-02-15T06:39:32;6.22;;;5.18;;
50789;SDS011;37287;47.554;7.844;2024-02-15T06:42:10;6.97;;;5.70;;
50789;SDS011;37287;47.554;7.844;2024-02-15T06:44:41;7.13;;;5.53;;
50789;SDS011;37287;47.554;7.844;2024-02-15T06:47:09;9.13;;;5.72;;
50789;SDS011;37287;47.554;7.844;2024-02-15T06:49:39;6.97;;;5.72;;
50789;SDS011;37287;47.554;7.844;2024-02-15T06:52:10;7.00;;;5.75;;
50789;SDS011;37287;47.554;7.844;2024-02-15T06:54:41;8.15;;;6.85;;
50789;SDS011;37287;47.554;7.844;2024-02-15T06:57:09;7.55;;;5.97;;
50789;SDS011;37287;47.554;7.844;2024-02-15T06:59:36;10.48;;;8.07;;
50789;SDS011;37287;47.554;7.844;2024-02-15T07:02:04;10.15;;;7.45;;
50789;SDS011;37287;47.554;7.844;2024-02-15T07:04:35;8.70;;;6.90;;
50789;SDS011;37287;47.554;7.844;2024-02-15T07:07:03;9.85;;;7.63;;
50789;SDS011;37287;47.554;7.844;2024-02-15T07:09:30;11.10;;;8.13;;
50789;SDS011;37287;47.554;7.844;2024-02-15T07:11:57;11.90;;;8.68;;
50789;SDS011;37287;47.554;7.844;2024-02-15T07:14:25;9.80;;;8.13;;
50789;SDS011;37287;47.554;7.844;2024-02-15T07:16:54;10.95;;;7.47;;
50789;SDS011;37287;47.554;7.844;2024-02-15T07:19:25;9.95;;;7.45;;
50789;SDS011;37287;47.554;7.844;2024-02-15T07:21:55;10.23;;;7.88;;
50789;SDS011;37287;47.554;7.844;2024-02-15T07:24:23;12.45;;;8.23;;
50789;SDS011;37287;47.554;7.844;2024-02-15T07:26:54;16.17;;;8.07;;
50789;SDS011;37287;47.554;7.844;2024-02-15T07:29:24;12.93;;;8.13;;
50789;SDS011;37287;47.554;7.844;2024-02-15T07:31:51;11.85;;;7.97;;
50789;SDS011;37287;47.554;7.844;2024-02-15T07:34:18;11.30;;;7.70;;
50789;SDS011;37287;47.554;7.844;2024-02-15T07:36:45;11.45;;;7.97;;
50789;SDS011;37287;47.554;7.844;2024-02-15T07:39:14;15.57;;;7.93;;
50789;SDS011;37287;47.554;7.844;2024-02-15T07:41:51;13.95;;;7.40;;
50789;SDS011;37287;47.554;7.844;2024-02-15T07:44:18;14.88;;;7.85;;
50789;SDS011;37287;47.554;7.844;2024-02-15T07:46:45;10.18;;;7.60;;
50789;SDS011;37287;47.554;7.844;2024-02-15T07:49:12;14.73;;;8.40;;
50789;SDS011;37287;47.554;7.844;2024-02-15T07:51:40;10.70;;;7.53;;
50789;SDS011;37287;47.554;7.844;2024-02-15T07:54:06;12.23;;;7.35;;
50789;SDS011;37287;47.554;7.844;2024-02-15T07:56:33;11.02;;;7.57;;
50789;SDS011;37287;47.554;7.844;2024-02-15T07:59:01;11.38;;;7.60;;
50789;SDS011;37287;47.554;7.844;2024-02-15T08:01:29;11.13;;;8.00;;
50789;SDS011;37287;47.554;7.844;2024-02-15T08:03:57;12.07;;;7.55;;
50789;SDS011;37287;47.554;7.844;2024-02-15T08:06:24;17.33;;;8.05;;
50789;SDS011;37287;47.554;7.844;2024-02-15T08:08:53;11.65;;;8.02;;
50789;SDS011;37287;47.554;7.844;2024-02-15T08:11:20;11.32;;;7.80;;
50789;SDS011;37287;47.554;7.844;2024-02-15T08:13:47;17.17;;;8.30;;
50789;SDS011;37287;47.554;7.844;2024-02-15T08:16:16;9.65;;;7.80;;
50789;SDS011;37287;47.554;7.844;2024-02-15T08:18:45;10.90;;;8.20;;
50789;SDS011;37287;47.554;7.844;2024-02-15T08:21:15;14.90;;;8.70;;
50789;SDS011;37287;47.554;7.844;2024-02-15T08:23:42;10.88;;;8.63;;
50789;SDS011;37287;47.554;7.844;2024-02-15T08:26:09;10.27;;;8.02;;
50789;SDS011;37287;47.554;7.844;2024-02-15T08:28:39;12.23;;;8.15;;
50789;SDS011;37287;47.554;7.844;2024-02-15T08:31:05;10.95;;;8.32;;
50789;SDS011;37287;47.554;7.844;2024-02-15T08:33:34;9.88;;;7.68;;
50789;SDS011;37287;47.554;7.844;2024-02-15T08:36:02;10.27;;;7.28;;
50789;SDS011;37287;47.554;7.844;2024-02-15T08:38:30;11.23;;;7.82;;
50789;SDS011;37287;47.554;7.844;2024-02-15T08:40:57;9.45;;;7.20;;
50789;SDS011;37287;47.554;7.844;2024-02-15T08:43:24;9.45;;;6.53;;
50789;SDS011;37287;47.554;7.844;2024-02-15T08:45:51;10.82;;;6.85;;
50789;SDS011;37287;47.554;7.844;2024-02-15T08:48:19;9.50;;;6.68;;
50789;SDS011;37287;47.554;7.844;2024-02-15T08:50:46;9.50;;;6.30;;
50789;SDS011;37287;47.554;7.844;2024-02-15T08:53:13;7.15;;;5.88;;
50789;SDS011;37287;47.554;7.844;2024-02-15T08:55:41;8.48;;;6.50;;
50789;SDS011;37287;47.554;7.844;2024-02-15T08:58:08;8.98;;;6.72;;
50789;SDS011;37287;47.554;7.844;2024-02-15T09:00:36;8.52;;;6.47;;
50789;SDS011;37287;47.554;7.844;2024-02-15T09:03:04;7.13;;;5.47;;
50789;SDS011;37287;47.554;7.844;2024-02-15T09:05:30;6.43;;;5.53;;
50789;SDS011;37287;47.554;7.844;2024-02-15T09:07:57;8.30;;;5.63;;
50789;SDS011;37287;47.554;7.844;2024-02-15T09:10:24;8.93;;;6.63;;
50789;SDS011;37287;47.554;7.844;2024-02-15T09:12:51;8.10;;;6.35;;
50789;SDS011;37287;47.554;7.844;2024-02-15T09:15:17;9.27;;;5.97;;
50789;SDS011;37287;47.554;7.844;2024-02-15T09:17:45;8.55;;;6.10;;
50789;SDS011;37287;47.554;7.844;2024-02-15T09:20:13;8.50;;;6.60;;
50789;SDS011;37287;47.554;7.844;2024-02-15T09:22:50;7.38;;;6.30;;
50789;SDS011;37287;47.554;7.844;2024-02-15T09:25:18;9.55;;;5.85;;
50789;SDS011;37287;47.554;7.844;2024-02-15T09:27:45;7.90;;;5.50;;
50789;SDS011;37287;47.554;7.844;2024-02-15T09:30:12;7.95;;;5.85;;
50789;SDS011;37287;47.554;7.844;2024-02-15T09:32:40;7.75;;;5.63;;
50789;SDS011;37287;47.554;7.844;2024-02-15T09:35:07;9.98;;;5.72;;
50789;SDS011;37287;47.554;7.844;2024-02-15T09:37:35;7.80;;;5.75;;
50789;SDS011;37287;47.554;7.844;2024-02-15T09:40:09;10.60;;;6.00;;
50789;SDS011;37287;47.554;7.844;2024-02-15T09:42:37;9.43;;;5.43;;
50789;SDS011;37287;47.554;7.844;2024-02-15T09:45:05;9.63;;;5.80;;
50789;SDS011;37287;47.554;7.844;2024-02-15T09:47:34;8.30;;;5.35;;
50789;SDS011;37287;47.554;7.844;2024-02-15T09:50:11;7.50;;;5.30;;
50789;SDS011;37287;47.554;7.844;2024-02-15T09:52:49;7.22;;;5.45;;
50789;SDS011;37287;47.554;7.844;2024-02-15T09:55:17;9.13;;;5.47;;
50789;SDS011;37287;47.554;7.844;2024-02-15T09:57:45;6.65;;;4.88;;
50789;SDS011;37287;47.554;7.844;2024-02-15T10:00:14;7.78;;;5.60;;
50789;SDS011;37287;47.554;7.844;2024-02-15T10:02:43;5.93;;;4.97;;
50789;SDS011;37287;47.554;7.844;2024-02-15T10:05:11;7.55;;;4.80;;
50789;SDS011;37287;47.554;7.844;2024-02-15T10:07:39;8.75;;;4.93;;
50789;SDS011;37287;47.554;7.844;2024-02-15T10:10:16;8.80;;;5.10;;
50789;SDS011;37287;47.554;7.844;2024-02-15T10:12:46;6.25;;;4.70;;
50789;SDS011;37287;47.554;7.844;2024-02-15T10:15:33;5.88;;;4.85;;
50789;SDS011;37287;47.554;7.844;2024-02-15T10:18:03;6.35;;;4.80;;
50789;SDS011;37287;47.554;7.844;2024-02-15T10:20:32;6.35;;;4.50;;
50789;SDS011;37287;47.554;7.844;2024-02-15T10:25:27;7.22;;;5.05;;
50789;SDS011;37287;47.554;7.844;2024-02-15T10:28:04;7.65;;;4.97;;
50789;SDS011;37287;47.554;7.844;2024-02-15T10:30:35;7.38;;;5.47;;
50789;SDS011;37287;47.554;7.844;2024-02-15T10:33:03;9.10;;;5.30;;
50789;SDS011;37287;47.554;7.844;2024-02-15T10:35:31;7.78;;;4.93;;
50789;SDS011;37287;47.554;7.844;2024-02-15T10:38:19;6.82;;;4.82;;
50789;SDS011;37287;47.554;7.844;2024-02-15T10:40:51;7.53;;;4.97;;
50789;SDS011;37287;47.554;7.844;2024-02-15T10:43:31;6.10;;;4.40;;
50789;SDS011;37287;47.554;7.844;2024-02-15T10:46:00;6.15;;;4.28;;
50789;SDS011;37287;47.554;7.844;2024-02-15T10:48:27;6.07;;;4.65;;
50789;SDS011;37287;47.554;7.844;2024-02-15T10:50:59;6.65;;;4.75;;
50789;SDS011;37287;47.554;7.844;2024-02-15T10:53:27;6.47;;;5.05;;
50789;SDS011;37287;47.554;7.844;2024-02-15T10:56:05;6.90;;;4.60;;
50789;SDS011;37287;47.554;7.844;2024-02-15T10:58:50;7.60;;;5.50;;
50789;SDS011;37287;47.554;7.844;2024-02-15T11:01:20;6.35;;;4.68;;
50789;SDS011;37287;47.554;7.844;2024-02-15T11:03:56;7.20;;;5.13;;
50789;SDS011;37287;47.554;7.844;2024-02-15T11:06:26;10.45;;;4.60;;
50789;SDS011;37287;47.554;7.844;2024-02-15T11:08:57;5.88;;;4.47;;
50789;SDS011;37287;47.554;7.844;2024-02-15T11:11:25;7.47;;;4.78;;
50789;SDS011;37287;47.554;7.844;2024-02-15T11:14:36;5.60;;;4.65;;
50789;SDS011;37287;47.554;7.844;2024-02-15T11:16:53;5.47;;;4.40;;
50789;SDS011;37287;47.554;7.844;2024-02-15T11:22:01;5.07;;;4.47;;
50789;SDS011;37287;47.554;7.844;2024-02-15T11:24:45;5.63;;;4.43;;
50789;SDS011;37287;47.554;7.844;2024-02-15T11:27:23;6.53;;;5.38;;
50789;SDS011;37287;47.554;7.844;2024-02-15T11:29:56;9.93;;;4.97;;
50789;SDS011;37287;47.554;7.844;2024-02-15T11:32:37;8.00;;;4.75;;
50789;SDS011;37287;47.554;7.844;2024-02-15T11:35:18;7.00;;;5.30;;
50789;SDS011;37287;47.554;7.844;2024-02-15T11:37:53;5.30;;;4.53;;
50789;SDS011;37287;47.554;7.844;2024-02-15T11:40:23;6.72;;;4.97;;
50789;SDS011;37287;47.554;7.844;2024-02-15T11:42:58;6.93;;;4.90;;
50789;SDS011;37287;47.554;7.844;2024-02-15T11:45:27;13.70;;;4.20;;
50789;SDS011;37287;47.554;7.844;2024-02-15T11:47:59;5.70;;;4.53;;
50789;SDS011;37287;47.554;7.844;2024-02-15T11:50:26;7.78;;;4.72;;
50789;SDS011;37287;47.554;7.844;2024-02-15T11:53:01;9.63;;;4.50;;
50789;SDS011;37287;47.554;7.844;2024-02-15T11:55:36;6.93;;;4.25;;
50789;SDS011;37287;47.554;7.844;2024-02-15T11:58:07;6.43;;;4.60;;
50789;SDS011;37287;47.554;7.844;2024-02-15T12:00:35;6.10;;;3.97;;
50789;SDS011;37287;47.554;7.844;2024-02-15T12:03:22;9.57;;;4.32;;
50789;SDS011;37287;47.554;7.844;2024-02-15T12:06:25;5.63;;;4.32;;
50789;SDS011;37287;47.554;7.844;2024-02-15T12:09:12;5.85;;;3.70;;
50789;SDS011;37287;47.554;7.844;2024-02-15T12:12:02;4.93;;;3.70;;
50789;SDS011;37287;47.554;7.844;2024-02-15T12:14:48;4.57;;;3.72;;
50789;SDS011;37287;47.554;7.844;2024-02-15T12:17:33;6.57;;;4.30;;
50789;SDS011;37287;47.554;7.844;2024-02-15T12:20:18;6.67;;;4.00;;
50789;SDS011;37287;47.554;7.844;2024-02-15T12:22:51;15.98;;;4.25;;
50789;SDS011;37287;47.554;7.844;2024-02-15T12:25:19;6.45;;;3.85;;
50789;SDS011;37287;47.554;7.844;2024-02-15T12:27:58;5.00;;;3.88;;
50789;SDS011;37287;47.554;7.844;2024-02-15T12:30:26;6.20;;;3.88;;
50789;SDS011;37287;47.554;7.844;2024-02-15T12:33:12;6.05;;;3.95;;
50789;SDS011;37287;47.554;7.844;2024-02-15T12:35:46;5.38;;;4.07;;
50789;SDS011;37287;47.554;7.844;2024-02-15T12:38:13;5.60;;;4.28;;
50789;SDS011;37287;47.554;7.844;2024-02-15T12:40:43;5.72;;;3.75;;
50789;SDS011;37287;47.554;7.844;2024-02-15T12:43:13;5.07;;;3.78;;
50789;SDS011;37287;47.554;7.844;2024-02-15T12:45:40;7.25;;;3.70;;
50789;SDS011;37287;47.554;7.844;2024-02-15T12:48:08;4.35;;;3.50;;
50789;SDS011;37287;47.554;7.844;2024-02-15T12:50:36;4.85;;;3.35;;
50789;SDS011;37287;47.554;7.844;2024-02-15T12:53:03;5.68;;;3.50;;
50789;SDS011;37287;47.554;7.844;2024-02-15T12:55:30;6.15;;;3.53;;
50789;SDS011;37287;47.554;7.844;2024-02-15T12:58:02;4.93;;;3.38;;
50789;SDS011;37287;47.554;7.844;2024-02-15T13:00:31;4.45;;;2.88;;
50789;SDS011;37287;47.554;7.844;2024-02-15T13:03:01;7.88;;;3.20;;
50789;SDS011;37287;47.554;7.844;2024-02-15T13:05:30;5.38;;;3.40;;
50789;SDS011;37287;47.554;7.844;2024-02-15T13:07:59;6.00;;;3.08;;
50789;SDS011;37287;47.554;7.844;2024-02-15T13:10:30;6.25;;;3.10;;
50789;SDS011;37287;47.554;7.844;2024-02-15T13:12:58;6.13;;;2.83;;
50789;SDS011;37287;47.554;7.844;2024-02-15T13:15:25;4.10;;;2.90;;
50789;SDS011;37287;47.554;7.844;2024-02-15T13:18:00;3.60;;;2.73;;
50789;SDS011;37287;47.554;7.844;2024-02-15T13:20:28;3.35;;;2.50;;
50789;SDS011;37287;47.554;7.844;2024-02-15T13:23:03;4.38;;;2.90;;
50789;SDS011;37287;47.554;7.844;2024-02-15T13:25:57;2.97;;;2.40;;
50789;SDS011;37287;47.554;7.844;2024-02-15T13:28:28;5.88;;;2.55;;
50789;SDS011;37287;47.554;7.844;2024-02-15T13:30:55;3.08;;;2.30;;
50789;SDS011;37287;47.554;7.844;2024-02-15T13:33:23;4.43;;;2.78;;
50789;SDS011;37287;47.554;7.844;2024-02-15T13:35:53;3.47;;;2.50;;
50789;SDS011;37287;47.554;7.844;2024-02-15T13:38:20;4.85;;;2.30;;
50789;SDS011;37287;47.554;7.844;2024-02-15T13:40:51;3.83;;;2.22;;
50789;SDS011;37287;47.554;7.844;2024-02-15T13:43:18;2.70;;;2.13;;
50789;SDS011;37287;47.554;7.844;2024-02-15T13:45:45;6.88;;;2.55;;
50789;SDS011;37287;47.554;7.844;2024-02-15T13:48:12;2.58;;;2.17;;
50789;SDS011;37287;47.554;7.844;2024-02-15T13:50:41;2.97;;;2.20;;
50789;SDS011;37287;47.554;7.844;2024-02-15T13:53:09;1.95;;;1.70;;
50789;SDS011;37287;47.554;7.844;2024-02-15T13:55:37;3.17;;;2.05;;
50789;SDS011;37287;47.554;7.844;2024-02-15T13:58:03;4.20;;;1.92;;
50789;SDS011;37287;47.554;7.844;2024-02-15T14:00:30;4.28;;;2.00;;
50789;SDS011;37287;47.554;7.844;2024-02-15T14:03:01;6.15;;;2.40;;
50789;SDS011;37287;47.554;7.844;2024-02-15T14:05:30;2.60;;;2.13;;
50789;SDS011;37287;47.554;7.844;2024-02-15T14:07:58;3.03;;;2.08;;
50789;SDS011;37287;47.554;7.844;2024-02-15T14:10:27;3.10;;;2.00;;
50789;SDS011;37287;47.554;7.844;2024-02-15T14:12:57;5.93;;;2.20;;
50789;SDS011;37287;47.554;7.844;2024-02-15T14:15:30;3.70;;;2.20;;
50789;SDS011;37287;47.554;7.844;2024-02-15T14:18:00;3.25;;;2.20;;
50789;SDS011;37287;47.554;7.844;2024-02-15T14:20:28;3.75;;;2.00;;
50789;SDS011;37287;47.554;7.844;2024-02-15T14:22:54;2.28;;;2.00;;
50789;SDS011;37287;47.554;7.844;2024-02-15T14:25:24;4.15;;;2.22;;
50789;SDS011;37287;47.554;7.844;2024-02-15T14:27:55;4.25;;;2.17;;
50789;SDS011;37287;47.554;7.844;2024-02-15T14:30:24;2.35;;;2.00;;
50789;SDS011;37287;47.554;7.844;2024-02-15T14:33:09;3.53;;;2.00;;
50789;SDS011;37287;47.554;7.844;2024-02-15T14:35:45;3.28;;;2.20;;
50789;SDS011;37287;47.554;7.844;2024-02-15T14:38:12;1.95;;;1.80;;
50789;SDS011;37287;47.554;7.844;2024-02-15T14:40:43;2.90;;;1.95;;
50789;SDS011;37287;47.554;7.844;2024-02-15T14:43:12;2.47;;;2.00;;
50789;SDS011;37287;47.554;7.844;2024-02-15T14:45:42;5.68;;;2.40;;
50789;SDS011;37287;47.554;7.844;2024-02-15T14:48:09;3.13;;;2.10;;
50789;SDS011;37287;47.554;7.844;2024-02-15T14:50:37;2.95;;;1.90;;
50789;SDS011;37287;47.554;7.844;2024-02-15T14:53:03;2.67;;;1.70;;
50789;SDS011;37287;47.554;7.844;2024-02-15T14:55:30;3.30;;;1.98;;
50789;SDS011;37287;47.554;7.844;2024-02-15T14:57:57;5.28;;;2.33;;
50789;SDS011;37287;47.554;7.844;2024-02-15T15:00:29;3.38;;;2.55;;
50789;SDS011;37287;47.554;7.844;2024-02-15T15:03:03;3.65;;;2.10;;
50789;SDS011;37287;47.554;7.844;2024-02-15T15:05:31;3.78;;;2.22;;
50789;SDS011;37287;47.554;7.844;2024-02-15T15:08:16;3.28;;;2.30;;